Time;durP1;ratioP1;P1;durP2;ratioP2;P2;SDS_P1;SDS_P2;PMS_P1;PMS_P2;Temp;Humidity;BMP_temperature;BMP_pressure;BME280_temperature;BME280_humidity;BME280_pressure;Samples;Min_cycle;Max_cycle;Signal;HPM_P1;HPM_P2
2022/06/26 00:00:16;;;;;;;5.70;5.10;;;;;;;22.06;51.67;100477.78;682554;29;1162;-75
2022/06/26 00:00:36;;;;;;;5.47;4.88;;;;;;;22.03;51.69;100472.53;679866;29;1281;-75
2022/06/26 00:01:00;;;;;;;5.70;5.10;;;;;;;22.00;51.74;100467.31;680056;29;919;-76
2022/06/26 00:01:45;;;;;;;5.90;5.20;;;;;;;22.07;51.66;100489.28;681374;29;1760;-75
2022/06/26 00:02:06;;;;;;;5.53;5.00;;;;;;;21.98;52.09;100479.75;684394;28;996;-76
2022/06/26 00:02:27;;;;;;;7.03;5.30;;;;;;;21.93;51.81;100471.91;685031;28;1668;-75
2022/06/26 00:02:48;;;;;;;7.00;5.32;;;;;;;21.90;51.97;100472.84;676894;29;1734;-75
2022/06/26 00:03:08;;;;;;;8.38;5.30;;;;;;;21.87;52.04;100467.59;683048;28;1834;-75
2022/06/26 00:03:29;;;;;;;6.90;5.17;;;;;;;21.90;51.93;100471.97;680781;28;1066;-75
2022/06/26 00:03:50;;;;;;;7.00;5.38;;;;;;;21.90;52.07;100477.28;680066;29;1062;-76
2022/06/26 00:04:11;;;;;;;6.20;5.55;;;;;;;21.84;51.96;100473.00;681559;28;1251;-77
2022/06/26 00:04:32;;;;;;;6.50;5.78;;;;;;;21.89;52.09;100478.22;682512;29;1530;-75
2022/06/26 00:04:53;;;;;;;6.10;5.50;;;;;;;21.84;52.19;100470.34;679570;29;1192;-75
2022/06/26 00:05:14;;;;;;;6.23;5.63;;;;;;;21.85;52.30;100477.41;682556;29;1171;-75
2022/06/26 00:05:34;;;;;;;6.32;5.72;;;;;;;21.78;52.28;100462.53;682847;29;1026;-76
2022/06/26 00:06:04;;;;;;;6.70;5.70;;;;;;;21.88;52.34;100487.09;677074;29;1105;-75
2022/06/26 00:06:25;;;;;;;6.55;5.60;;;;;;;21.78;52.23;100462.53;682141;28;1687;-75
2022/06/26 00:06:45;;;;;;;6.13;5.53;;;;;;;21.77;52.19;100460.78;682826;29;1224;-76
2022/06/26 00:07:06;;;;;;;6.32;5.72;;;;;;;21.78;52.22;100467.84;681885;28;1648;-75
2022/06/26 00:07:27;;;;;;;6.30;5.70;;;;;;;21.75;52.15;100467.88;679530;29;1287;-75
2022/06/26 00:07:47;;;;;;;6.13;5.53;;;;;;;21.73;52.10;100464.41;679531;29;1071;-76
2022/06/26 00:08:09;;;;;;;6.00;5.40;;;;;;;21.77;52.27;100471.41;677526;29;979;-75
2022/06/26 00:08:29;;;;;;;7.13;5.60;;;;;;;21.75;52.41;100473.19;681966;29;1125;-76
2022/06/26 00:08:50;;;;;;;7.10;5.60;;;;;;;21.71;52.49;100467.09;683849;28;1629;-76
2022/06/26 00:09:11;;;;;;;7.67;5.67;;;;;;;21.70;52.42;100464.50;685255;28;1038;-75
2022/06/26 00:09:31;;;;;;;6.70;5.45;;;;;;;21.76;52.62;100482.94;682242;29;1089;-75
2022/06/26 00:10:08;;;;;;;7.65;5.55;;;;;;;21.74;52.57;100479.44;684102;28;1240;-76
2022/06/26 00:10:29;;;;;;;6.68;5.60;;;;;;;21.78;52.56;100483.78;681749;29;1460;-75
2022/06/26 00:10:49;;;;;;;6.22;5.50;;;;;;;21.64;52.66;100458.41;679741;29;990;-75
2022/06/26 00:11:10;;;;;;;5.95;5.25;;;;;;;21.77;52.92;100487.34;678341;29;1641;-75
2022/06/26 00:11:31;;;;;;;6.10;5.50;;;;;;;21.72;52.81;100479.47;677156;29;1094;-75
2022/06/26 00:11:52;;;;;;;5.90;5.30;;;;;;;21.65;52.78;100467.25;679183;29;1617;-75
2022/06/26 00:12:13;;;;;;;6.17;5.57;;;;;;;21.73;52.86;100483.00;678184;29;1597;-75
2022/06/26 00:12:34;;;;;;;6.10;5.50;;;;;;;21.70;52.77;100478.63;682219;29;1149;-75
2022/06/26 00:12:55;;;;;;;6.40;5.70;;;;;;;21.67;52.75;100475.16;679519;29;1911;-75
2022/06/26 00:13:17;;;;;;;6.70;5.55;;;;;;;21.68;52.87;100477.78;680633;29;986;-76
2022/06/26 00:13:37;;;;;;;7.18;5.57;;;;;;;21.68;52.58;100476.94;682690;29;1365;-75
2022/06/26 00:13:58;;;;;;;6.63;5.50;;;;;;;21.62;52.83;100465.53;682755;29;1003;-76
2022/06/26 00:14:19;;;;;;;6.10;5.50;;;;;;;21.64;52.77;100477.00;679471;29;1942;-76
2022/06/26 00:15:23;;;;;;;5.80;5.30;;;;;;;21.70;52.70;100485.72;685421;28;1190;-75
2022/06/26 00:15:45;;;;;;;6.45;5.60;;;;;;;21.63;52.71;100485.88;682564;28;1454;-76
2022/06/26 00:16:06;;;;;;;5.70;5.10;;;;;;;21.60;52.76;100471.78;683326;28;971;-75
2022/06/26 00:16:26;;;;;;;5.70;5.20;;;;;;;21.66;53.00;100489.34;679231;29;1371;-75
2022/06/26 00:16:47;;;;;;;5.85;5.25;;;;;;;21.64;53.19;100486.75;680073;29;1276;-75
2022/06/26 00:17:08;;;;;;;6.07;5.47;;;;;;;21.58;52.98;100476.28;675215;29;1079;-75
2022/06/26 00:17:29;;;;;;;6.03;5.40;;;;;;;21.61;53.00;100486.81;677321;29;1302;-76
2022/06/26 00:17:50;;;;;;;6.80;5.63;;;;;;;21.60;53.00;100485.06;677121;29;1298;-76
2022/06/26 00:18:11;;;;;;;6.90;5.80;;;;;;;21.53;53.02;100473.72;679637;29;1578;-75
2022/06/26 00:18:32;;;;;;;6.78;5.80;;;;;;;21.57;53.08;100488.66;679525;29;1199;-75
2022/06/26 00:18:53;;;;;;;6.03;5.43;;;;;;;21.60;53.02;100485.94;681948;29;1803;-75
2022/06/26 00:19:14;;;;;;;6.10;5.50;;;;;;;21.56;53.04;100476.28;680769;29;1740;-76
2022/06/26 00:19:35;;;;;;;6.05;5.45;;;;;;;21.56;52.99;100484.25;677095;29;776;-75
2022/06/26 00:19:56;;;;;;;5.95;5.45;;;;;;;21.57;53.14;100474.53;677065;29;959;-76
2022/06/26 00:20:16;;;;;;;5.90;5.40;;;;;;;21.58;53.47;100471.81;679625;29;1433;-75
2022/06/26 00:20:37;;;;;;;6.18;5.60;;;;;;;21.54;53.36;100477.22;677863;29;775;-75
2022/06/26 00:20:58;;;;;;;6.28;5.68;;;;;;;21.54;53.27;100472.81;680150;29;1320;-76
2022/06/26 00:21:18;;;;;;;6.30;5.70;;;;;;;21.59;53.18;100484.19;683095;28;1067;-75
2022/06/26 00:21:40;;;;;;;6.05;5.55;;;;;;;21.57;53.14;100475.38;685287;28;1237;-75
2022/06/26 00:22:05;;;;;;;6.05;5.50;;;;;;;21.58;53.12;100486.88;682621;29;966;-75
2022/06/26 00:22:26;;;;;;;5.90;5.40;;;;;;;21.55;53.09;100481.63;682645;28;1282;-75
2022/06/26 00:22:47;;;;;;;6.18;5.55;;;;;;;21.56;52.95;100478.06;682647;28;1001;-76
2022/06/26 00:23:08;;;;;;;6.32;5.63;;;;;;;21.54;53.19;100478.13;683963;28;1472;-75
2022/06/26 00:23:29;;;;;;;6.37;5.70;;;;;;;21.56;53.21;100484.25;679412;29;1427;-76
2022/06/26 00:23:49;;;;;;;6.20;5.60;;;;;;;21.57;53.25;100480.69;680044;29;1137;-75
2022/06/26 00:24:11;;;;;;;6.30;5.70;;;;;;;21.56;53.07;100478.94;680874;29;1142;-75
2022/06/26 00:24:35;;;;;;;6.28;5.68;;;;;;;21.53;53.16;100479.03;679205;29;1880;-75
2022/06/26 00:24:56;;;;;;;6.75;5.55;;;;;;;21.53;53.17;100475.47;685282;28;983;-75
2022/06/26 00:25:17;;;;;;;5.82;5.22;;;;;;;21.60;53.22;100488.59;681281;29;1270;-75
2022/06/26 00:25:38;;;;;;;5.85;5.28;;;;;;;21.54;53.25;100475.47;680949;29;1595;-75
2022/06/26 00:25:59;;;;;;;5.80;5.30;;;;;;;21.58;53.14;100478.91;679628;29;1389;-75
2022/06/26 00:26:19;;;;;;;6.10;5.50;;;;;;;21.54;53.20;100475.47;680381;29;1591;-76
2022/06/26 00:26:40;;;;;;;6.22;5.63;;;;;;;21.58;53.31;100477.13;682650;29;1155;-75
2022/06/26 00:27:06;;;;;;;6.53;5.80;;;;;;;21.63;53.29;100483.22;685310;28;1061;-76
2022/06/26 00:27:27;;;;;;;7.40;5.90;;;;;;;21.70;52.96;100491.03;684958;28;2061;-75
2022/06/26 00:27:48;;;;;;;8.07;5.90;;;;;;;21.67;53.04;100480.47;682600;29;1124;-75
2022/06/26 00:28:08;;;;;;;7.60;5.63;;;;;;;21.66;53.00;100484.03;679462;29;1065;-75
2022/06/26 00:28:30;;;;;;;6.22;5.63;;;;;;;21.71;53.06;100487.47;685204;28;1274;-76
2022/06/26 00:28:52;;;;;;;7.20;5.53;;;;;;;21.67;52.89;100484.00;682620;28;1159;-75
2022/06/26 00:29:13;;;;;;;7.63;5.80;;;;;;;21.66;53.00;100474.31;680278;29;2036;-75
2022/06/26 00:29:34;;;;;;;8.00;6.00;;;;;;;21.71;52.99;100487.47;684448;28;1106;-75
2022/06/26 00:29:55;;;;;;;6.38;5.78;;;;;;;21.66;52.77;100478.72;685172;28;1202;-76
2022/06/26 00:30:34;;;;;;;6.15;5.65;;;;;;;21.64;53.04;100479.66;682306;29;1570;-75
2022/06/26 00:30:54;;;;;;;6.47;5.78;;;;;;;21.65;53.22;100472.56;685241;28;1096;-75
2022/06/26 00:31:15;;;;;;;7.30;5.50;;;;;;;21.64;53.16;100479.66;682322;29;1617;-75
2022/06/26 00:31:36;;;;;;;7.15;5.47;;;;;;;21.67;53.14;100483.13;685180;28;787;-75
2022/06/26 00:31:57;;;;;;;7.07;5.30;;;;;;;21.66;53.17;100479.63;677433;29;1003;-76
2022/06/26 00:32:17;;;;;;;6.03;5.30;;;;;;;21.66;52.99;100478.72;684303;28;1133;-76
2022/06/26 00:32:38;;;;;;;7.10;5.32;;;;;;;21.71;52.86;100490.13;682493;28;1398;-76
2022/06/26 00:32:59;;;;;;;7.35;5.43;;;;;;;21.62;53.19;100477.94;679345;29;1631;-75
2022/06/26 00:33:19;;;;;;;9.10;5.80;;;;;;;21.71;53.08;100498.09;679283;29;2195;-75
2022/06/26 00:33:40;;;;;;;7.03;5.90;;;;;;;21.59;53.12;100473.56;682474;29;1209;-75
2022/06/26 00:34:01;;;;;;;6.57;5.70;;;;;;;21.66;52.89;100484.03;684504;28;1048;-75
2022/06/26 00:34:22;;;;;;;6.10;5.60;;;;;;;21.62;53.06;100477.94;682347;28;1919;-75
2022/06/26 00:34:43;;;;;;;6.10;5.60;;;;;;;21.59;53.14;100478.00;677146;29;1265;-76
2022/06/26 00:35:05;;;;;;;6.50;5.90;;;;;;;21.67;53.04;100494.63;677125;29;2276;-76
2022/06/26 00:35:26;;;;;;;6.10;5.50;;;;;;;21.61;53.21;100481.50;688261;28;1372;-75
2022/06/26 00:35:53;;;;;;;5.85;5.30;;;;;;;21.58;53.32;100487.75;687650;28;1711;-75
2022/06/26 00:36:13;;;;;;;6.00;5.40;;;;;;;21.55;53.01;100474.56;684806;28;2005;-75
2022/06/26 00:36:34;;;;;;;6.30;5.70;;;;;;;21.51;53.01;100464.88;685185;28;1163;-75
2022/06/26 00:36:55;;;;;;;6.50;5.90;;;;;;;21.54;53.22;100486.09;682421;29;1044;-75
2022/06/26 00:37:16;;;;;;;6.43;5.82;;;;;;;21.53;53.21;100484.34;685053;28;1555;-75
2022/06/26 00:37:36;;;;;;;6.38;5.80;;;;;;;21.52;53.47;100477.28;685222;28;775;-75
2022/06/26 00:37:57;;;;;;;5.87;5.33;;;;;;;21.49;53.32;100477.34;676783;29;1416;-75
2022/06/26 00:38:17;;;;;;;5.55;5.05;;;;;;;21.53;53.43;100484.34;677334;29;1120;-75
2022/06/26 00:38:38;;;;;;;5.90;5.30;;;;;;;21.54;53.45;100485.19;685246;28;812;-75
2022/06/26 00:38:59;;;;;;;6.20;5.60;;;;;;;21.52;53.59;100487.00;685171;28;1259;-76
2022/06/26 00:39:19;;;;;;;6.80;5.80;;;;;;;21.51;53.51;100486.13;685141;28;1123;-75
2022/06/26 00:39:40;;;;;;;6.63;5.80;;;;;;;21.47;53.57;100479.97;682123;29;1056;-75
2022/06/26 00:40:01;;;;;;;6.37;5.73;;;;;;;21.50;53.58;100487.94;682554;28;1241;-75
2022/06/26 00:40:23;;;;;;;6.40;5.80;;;;;;;21.55;53.66;100501.09;680397;29;1443;-75
2022/06/26 00:40:44;;;;;;;6.30;5.70;;;;;;;21.48;53.55;100486.19;679946;29;1183;-75
2022/06/26 00:41:05;;;;;;;6.10;5.60;;;;;;;21.46;53.43;100483.56;674584;29;1657;-75
2022/06/26 00:41:26;;;;;;;6.40;5.80;;;;;;;21.47;53.54;100484.44;682467;28;1506;-75
2022/06/26 00:41:47;;;;;;;7.47;6.10;;;;;;;21.48;53.41;100488.84;687720;28;1215;-76
2022/06/26 00:42:08;;;;;;;7.25;6.05;;;;;;;21.48;53.50;100480.88;684301;28;1246;-75
2022/06/26 00:42:28;;;;;;;6.57;5.72;;;;;;;21.47;53.58;100490.59;682630;28;1171;-75
2022/06/26 00:42:49;;;;;;;6.30;5.70;;;;;;;21.48;53.59;100481.75;682427;29;1070;-75
2022/06/26 00:43:09;;;;;;;6.63;6.03;;;;;;;21.46;53.39;100488.00;679900;29;1068;-76
2022/06/26 00:43:31;;;;;;;6.88;6.20;;;;;;;21.53;53.51;100494.97;685821;28;1130;-75
2022/06/26 00:43:52;;;;;;;6.65;5.95;;;;;;;21.49;53.61;100490.59;685219;28;1218;-75
2022/06/26 00:44:21;;;;;;;7.88;5.95;;;;;;;21.53;53.58;100497.59;681014;29;1539;-75
2022/06/26 00:44:42;;;;;;;7.57;5.70;;;;;;;21.50;53.58;100495.91;682635;29;1001;-76
2022/06/26 00:45:04;;;;;;;6.80;5.63;;;;;;;21.52;53.54;100501.19;684426;28;1158;-76
2022/06/26 00:45:24;;;;;;;7.03;5.75;;;;;;;21.53;53.53;100504.69;678476;29;2278;-75
2022/06/26 00:46:04;;;;;;;6.85;6.03;;;;;;;21.74;53.35;100556.44;682468;29;1141;-76
2022/06/26 00:46:25;;;;;;;6.60;6.00;;;;;;;21.83;53.35;100558.03;676615;29;1601;-75
2022/06/26 00:46:46;;;;;;;7.20;6.00;;;;;;;21.84;53.17;100554.47;679899;29;1141;-75
2022/06/26 00:47:07;;;;;;;7.60;6.30;;;;;;;21.91;52.91;100567.59;679614;29;1103;-76
2022/06/26 00:47:30;;;;;;;7.82;6.28;;;;;;;22.00;52.65;100563.81;678694;29;1468;-75
2022/06/26 00:47:50;;;;;;;6.95;6.25;;;;;;;22.00;52.86;100547.03;679533;29;1328;-75
2022/06/26 00:48:11;;;;;;;7.38;6.25;;;;;;;22.02;52.77;100543.41;678681;29;1652;-76
2022/06/26 00:48:32;;;;;;;7.20;6.43;;;;;;;22.02;52.60;100518.63;679591;29;1123;-76
2022/06/26 00:48:53;;;;;;;7.13;6.20;;;;;;;22.06;52.21;100520.28;679709;29;1084;-75
2022/06/26 00:49:14;;;;;;;6.78;5.75;;;;;;;22.12;52.19;100520.13;677429;29;983;-75
2022/06/26 00:49:35;;;;;;;6.43;5.70;;;;;;;22.10;52.08;100521.09;679202;29;1347;-76
2022/06/26 00:49:55;;;;;;;7.07;5.90;;;;;;;22.16;52.12;100529.81;679581;29;990;-75
2022/06/26 00:50:16;;;;;;;6.78;6.07;;;;;;;22.13;52.01;100516.56;675963;29;1369;-76
2022/06/26 00:50:37;;;;;;;7.00;6.00;;;;;;;22.21;51.95;100544.75;682041;29;1218;-76
2022/06/26 00:50:58;;;;;;;6.85;6.00;;;;;;;22.14;52.02;100539.56;682452;28;1616;-76
2022/06/26 00:51:22;;;;;;;7.20;6.13;;;;;;;22.28;51.74;100562.31;684627;28;2109;-76
2022/06/26 00:51:54;;;;;;;6.93;6.22;;;;;;;22.24;51.72;100563.28;683868;28;1274;-76
2022/06/26 00:52:19;;;;;;;6.72;6.13;;;;;;;22.21;51.69;100558.91;680991;29;1345;-75
2022/06/26 00:52:41;;;;;;;6.70;6.10;;;;;;;22.31;51.78;100572.88;682491;29;796;-76
2022/06/26 00:53:02;;;;;;;8.80;6.55;;;;;;;22.28;51.74;100563.22;674627;29;1246;-76
2022/06/26 00:53:23;;;;;;;9.27;6.50;;;;;;;22.24;51.55;100550.00;681866;29;1411;-75
2022/06/26 00:53:43;;;;;;;12.10;6.82;;;;;;;22.26;51.57;100548.22;679782;29;1590;-76
2022/06/26 00:54:06;;;;;;;10.00;6.72;;;;;;;22.27;51.40;100550.84;674582;29;1154;-75
2022/06/26 00:54:28;;;;;;;7.53;6.10;;;;;;;22.28;51.42;100549.03;676928;29;1916;-75
2022/06/26 00:54:50;;;;;;;6.28;5.75;;;;;;;22.26;51.56;100549.06;681908;29;1468;-75
2022/06/26 00:55:11;;;;;;;6.65;5.65;;;;;;;22.27;51.54;100544.63;679687;29;1309;-76
2022/06/26 00:55:33;;;;;;;7.07;5.90;;;;;;;22.28;51.21;100541.06;681731;29;995;-76
2022/06/26 00:55:53;;;;;;;7.53;6.20;;;;;;;22.28;51.33;100546.38;679910;29;1484;-76
2022/06/26 00:56:14;;;;;;;6.85;6.25;;;;;;;22.23;51.31;100534.94;679780;29;939;-75
2022/06/26 00:56:36;;;;;;;7.18;6.57;;;;;;;22.32;51.19;100548.06;679825;29;1088;-75
2022/06/26 00:56:58;;;;;;;6.97;6.38;;;;;;;22.28;51.47;100546.38;679952;29;963;-76
2022/06/26 00:57:19;;;;;;;6.50;5.90;;;;;;;22.24;51.24;100539.38;684269;28;1322;-76
2022/06/26 00:57:40;;;;;;;6.30;5.70;;;;;;;22.26;51.49;100543.75;680114;29;906;-75
2022/06/26 00:58:01;;;;;;;6.70;5.70;;;;;;;22.19;51.61;100545.66;681943;29;1176;-75
2022/06/26 00:58:22;;;;;;;7.93;5.90;;;;;;;22.22;51.39;100551.81;679182;29;1319;-75
2022/06/26 00:58:43;;;;;;;9.93;5.82;;;;;;;22.18;51.39;100545.69;682401;29;1674;-76
2022/06/26 00:59:24;;;;;;;9.23;5.60;;;;;;;22.18;51.36;100561.63;682520;29;1062;-76
2022/06/26 00:59:46;;;;;;;6.10;5.50;;;;;;;22.17;51.34;100560.78;684977;28;1603;-75
2022/06/26 01:00:09;;;;;;;6.07;5.47;;;;;;;22.18;51.29;100561.63;685240;28;1326;-76
2022/06/26 01:00:30;;;;;;;5.90;5.30;;;;;;;22.14;51.26;100544.88;683997;28;1887;-76
2022/06/26 01:00:51;;;;;;;5.70;5.20;;;;;;;22.26;51.30;100569.47;681738;29;1732;-76
2022/06/26 01:01:12;;;;;;;5.72;5.22;;;;;;;22.16;51.37;100552.81;683257;28;2202;-75
2022/06/26 01:01:34;;;;;;;5.80;5.30;;;;;;;22.16;51.31;100555.47;688178;28;1278;-76
2022/06/26 01:01:55;;;;;;;6.10;5.50;;;;;;;22.22;51.22;100573.06;682526;29;1211;-76
2022/06/26 01:02:16;;;;;;;6.20;5.70;;;;;;;22.22;51.38;100579.25;678441;29;1416;-76
2022/06/26 01:02:37;;;;;;;6.50;5.90;;;;;;;22.18;51.26;100567.84;679506;29;1277;-76
2022/06/26 01:02:57;;;;;;;6.45;5.85;;;;;;;22.21;51.13;100573.97;682350;29;1298;-77
2022/06/26 01:03:18;;;;;;;6.53;5.93;;;;;;;22.20;51.05;100567.81;681840;28;1434;-76
2022/06/26 01:03:39;;;;;;;6.43;5.82;;;;;;;22.21;50.87;100573.97;685131;28;1295;-76
2022/06/26 01:04:01;;;;;;;6.20;5.60;;;;;;;22.24;50.99;100579.25;685267;28;1170;-76
2022/06/26 01:04:22;;;;;;;7.03;5.57;;;;;;;22.22;50.80;100578.38;680457;29;1216;-76
2022/06/26 01:04:43;;;;;;;7.47;5.60;;;;;;;22.22;50.69;100578.38;683331;28;1505;-76
2022/06/26 01:05:05;;;;;;;7.30;5.70;;;;;;;22.23;50.78;100577.47;679671;29;1111;-75
2022/06/26 01:05:27;;;;;;;6.50;5.90;;;;;;;22.26;50.53;100580.09;680901;29;1285;-75
2022/06/26 01:05:48;;;;;;;7.10;6.20;;;;;;;22.26;50.77;100580.94;685190;28;1276;-76
2022/06/26 01:06:09;;;;;;;7.57;6.50;;;;;;;22.31;50.86;100583.50;681441;29;1442;-76
2022/06/26 01:06:31;;;;;;;7.45;6.40;;;;;;;22.29;50.88;100580.91;685017;28;1144;-76
2022/06/26 01:06:51;;;;;;;7.20;6.50;;;;;;;22.33;51.10;100581.69;687864;28;1366;-75
2022/06/26 01:07:13;;;;;;;7.43;6.50;;;;;;;22.32;50.99;100574.66;687329;28;1765;-76
2022/06/26 01:07:35;;;;;;;7.20;6.50;;;;;;;22.40;51.12;100583.31;684963;28;1089;-75
2022/06/26 01:07:56;;;;;;;7.15;6.45;;;;;;;22.33;50.92;100576.38;681978;29;1364;-75
2022/06/26 01:08:17;;;;;;;7.20;6.50;;;;;;;22.35;51.16;100574.56;679836;29;1653;-76
2022/06/26 01:08:39;;;;;;;7.30;6.60;;;;;;;22.36;51.10;100576.28;677215;29;856;-75
2022/06/26 01:09:00;;;;;;;8.15;6.97;;;;;;;22.37;51.09;100583.34;680019;29;1102;-76
2022/06/26 01:09:21;;;;;;;7.78;6.93;;;;;;;22.40;51.17;100580.63;683846;28;1506;-76
2022/06/26 01:09:44;;;;;;;8.50;6.72;;;;;;;22.47;50.91;100594.66;687364;28;980;-75
2022/06/26 01:10:05;;;;;;;6.85;6.15;;;;;;;22.42;51.18;100578.81;682541;28;1257;-76
2022/06/26 01:10:27;;;;;;;7.00;6.30;;;;;;;22.39;50.95;100581.56;680084;29;1311;-76
2022/06/26 01:10:51;;;;;;;7.00;6.30;;;;;;;22.41;51.12;100577.06;679873;29;1031;-76
2022/06/26 01:11:18;;;;;;;8.38;6.70;;;;;;;22.35;51.30;100574.56;679850;29;1125;-75
2022/06/26 01:11:41;;;;;;;8.82;6.72;;;;;;;22.39;51.02;100578.91;682584;29;911;-75
2022/06/26 01:12:02;;;;;;;9.32;6.85;;;;;;;22.34;51.13;100572.81;679917;29;1156;-75
2022/06/26 01:12:23;;;;;;;7.88;7.00;;;;;;;22.27;51.25;100566.78;685048;28;1100;-76
2022/06/26 01:12:45;;;;;;;7.65;6.85;;;;;;;22.28;51.60;100567.63;683844;28;1274;-76
2022/06/26 01:13:07;;;;;;;7.80;7.00;;;;;;;22.32;51.30;100574.66;682561;29;1026;-75
2022/06/26 01:13:29;;;;;;;8.20;7.03;;;;;;;22.34;51.49;100567.50;682340;29;1315;-75
2022/06/26 01:13:53;;;;;;;8.25;7.15;;;;;;;22.33;51.63;100576.38;682332;29;1546;-76
2022/06/26 01:14:14;;;;;;;7.50;6.80;;;;;;;22.24;51.38;100555.31;679687;29;954;-76
2022/06/26 01:14:35;;;;;;;7.35;6.65;;;;;;;22.21;51.45;100561.56;684437;28;1911;-76
2022/06/26 01:14:58;;;;;;;7.53;6.53;;;;;;;22.24;51.84;100565.94;684937;28;1178;-75
2022/06/26 01:15:20;;;;;;;8.10;6.72;;;;;;;22.21;51.62;100556.25;684988;28;1128;-75
2022/06/26 01:15:41;;;;;;;9.18;7.05;;;;;;;22.18;52.10;100562.50;680014;29;923;-76
2022/06/26 01:16:03;;;;;;;8.10;7.30;;;;;;;22.23;52.18;100572.16;684361;28;1075;-75
2022/06/26 01:16:25;;;;;;;8.15;7.35;;;;;;;22.14;52.32;100570.59;685086;28;1188;-76
2022/06/26 01:16:46;;;;;;;8.60;7.80;;;;;;;22.22;52.30;100584.59;679964;29;955;-76
2022/06/26 01:17:08;;;;;;;8.50;7.70;;;;;;;22.16;52.29;100568.78;680230;29;2155;-76
2022/06/26 01:17:40;;;;;;;8.70;7.78;;;;;;;22.18;52.47;100583.78;682345;29;1111;-75
2022/06/26 01:18:04;;;;;;;11.20;7.97;;;;;;;22.10;52.48;100566.25;679645;29;1296;-76
2022/06/26 01:18:25;;;;;;;11.50;7.83;;;;;;;22.07;52.54;100564.53;679500;29;978;-76
2022/06/26 01:18:50;;;;;;;9.32;7.75;;;;;;;22.10;52.62;100559.16;679571;29;1667;-76
2022/06/26 01:19:15;;;;;;;10.18;7.60;;;;;;;22.11;52.54;100574.19;676849;29;1318;-76
2022/06/26 01:19:36;;;;;;;10.48;8.18;;;;;;;22.14;52.61;100567.94;680333;29;1409;-75
2022/06/26 01:19:57;;;;;;;10.38;8.40;;;;;;;22.09;52.96;100568.06;684846;28;1055;-76
2022/06/26 01:20:18;;;;;;;10.27;8.30;;;;;;;22.14;52.64;100573.25;683572;28;929;-76
2022/06/26 01:20:40;;;;;;;10.05;8.00;;;;;;;22.04;52.78;100554.88;681919;29;1155;-76
2022/06/26 01:21:01;;;;;;;9.05;7.95;;;;;;;22.06;52.82;100557.47;681983;29;1210;-75
2022/06/26 01:21:23;;;;;;;9.95;8.50;;;;;;;22.12;52.63;100567.13;679812;29;1066;-75
2022/06/26 01:21:44;;;;;;;10.00;9.00;;;;;;;22.08;52.96;100568.97;677114;29;1108;-76
2022/06/26 01:22:05;;;;;;;9.83;8.83;;;;;;;22.09;52.96;100568.06;676528;29;1187;-75
2022/06/26 01:22:28;;;;;;;10.02;9.02;;;;;;;22.04;52.81;100554.00;681112;29;1300;-75
2022/06/26 01:23:05;;;;;;;10.27;9.00;;;;;;;22.10;53.03;100569.81;679634;29;1100;-75
2022/06/26 01:23:26;;;;;;;12.68;9.35;;;;;;;22.09;52.97;100560.09;678033;29;990;-76
2022/06/26 01:23:47;;;;;;;12.53;9.60;;;;;;;22.11;53.11;100552.94;684885;28;1223;-76
2022/06/26 01:24:09;;;;;;;10.73;9.60;;;;;;;22.10;53.03;100559.16;679631;29;1594;-76
2022/06/26 01:24:29;;;;;;;10.23;9.18;;;;;;;22.11;53.30;100555.59;682454;29;1254;-75
2022/06/26 01:24:51;;;;;;;10.40;9.30;;;;;;;22.06;53.13;100557.47;682441;29;1034;-75
2022/06/26 01:25:12;;;;;;;10.75;9.75;;;;;;;22.10;53.12;100561.81;684757;28;1571;-75
2022/06/26 01:25:48;;;;;;;12.57;9.90;;;;;;;22.13;53.00;100560.88;685844;28;1584;-75
2022/06/26 01:26:09;;;;;;;16.50;10.23;;;;;;;22.17;53.13;100566.09;679950;29;1079;-75
2022/06/26 01:26:30;;;;;;;14.20;10.33;;;;;;;22.11;53.21;100552.94;682728;28;1140;-75
2022/06/26 01:26:51;;;;;;;12.38;9.90;;;;;;;22.13;53.05;100559.09;682542;29;971;-75
2022/06/26 01:27:12;;;;;;;12.37;9.93;;;;;;;22.24;53.07;100565.94;680431;29;1304;-75
2022/06/26 01:27:41;;;;;;;12.55;9.98;;;;;;;22.13;53.16;100553.78;681901;28;1196;-75
2022/06/26 01:28:02;;;;;;;11.77;10.40;;;;;;;22.26;53.22;100574.78;682558;29;1170;-75
2022/06/26 01:28:23;;;;;;;12.10;10.33;;;;;;;22.22;53.08;100565.97;677614;29;1448;-75
2022/06/26 01:28:44;;;;;;;11.73;10.53;;;;;;;22.22;52.98;100557.13;681858;29;997;-76
2022/06/26 01:29:05;;;;;;;11.53;10.33;;;;;;;22.20;53.32;100554.53;681639;28;1250;-75
2022/06/26 01:29:26;;;;;;;11.48;10.20;;;;;;;22.24;53.14;100560.63;679644;29;1381;-75
2022/06/26 01:29:47;;;;;;;12.75;10.10;;;;;;;22.23;53.21;100562.41;682012;29;1052;-75
2022/06/26 01:30:09;;;;;;;14.57;10.10;;;;;;;22.27;53.15;100563.25;682035;29;1027;-75
2022/06/26 01:30:29;;;;;;;14.60;10.52;;;;;;;22.26;53.42;100561.50;681070;29;1238;-75
2022/06/26 01:30:50;;;;;;;13.55;10.90;;;;;;;22.27;53.33;100561.47;682592;29;1065;-75
2022/06/26 01:31:11;;;;;;;12.18;11.00;;;;;;;22.28;53.40;100564.97;687626;28;1093;-75
2022/06/26 01:31:34;;;;;;;11.77;10.60;;;;;;;22.23;53.35;100557.09;684243;28;1269;-75
2022/06/26 01:31:54;;;;;;;12.05;10.85;;;;;;;22.28;53.34;100551.69;679838;29;1252;-75
2022/06/26 01:32:15;;;;;;;12.30;11.10;;;;;;;22.32;53.05;100570.19;676409;29;1369;-75
2022/06/26 01:32:36;;;;;;;12.55;11.25;;;;;;;22.25;53.46;100546.44;679739;29;1673;-76
2022/06/26 01:32:57;;;;;;;14.73;11.07;;;;;;;22.28;53.36;100557.00;679941;29;1032;-76
2022/06/26 01:33:18;;;;;;;14.50;10.88;;;;;;;22.27;53.31;100547.28;686488;28;1387;-76
2022/06/26 01:33:40;;;;;;;13.63;11.23;;;;;;;22.35;53.19;100558.59;685073;28;836;-75
2022/06/26 01:34:09;;;;;;;12.73;11.20;;;;;;;22.32;53.46;100556.03;687402;28;1413;-75
2022/06/26 01:34:30;;;;;;;13.75;11.60;;;;;;;22.28;53.28;100549.03;686006;28;1942;-75
2022/06/26 01:34:55;;;;;;;15.45;11.73;;;;;;;22.32;53.33;100558.69;682286;29;1161;-75
2022/06/26 01:35:16;;;;;;;15.10;12.10;;;;;;;22.33;53.31;100555.13;677970;29;2151;-76
2022/06/26 01:35:47;;;;;;;13.65;12.02;;;;;;;22.36;53.29;100557.69;679719;29;1364;-75
2022/06/26 01:36:08;;;;;;;13.48;11.93;;;;;;;22.33;53.43;100555.13;677119;29;992;-75
2022/06/26 01:36:32;;;;;;;12.80;11.40;;;;;;;22.29;53.54;100553.44;685118;28;1849;-75
2022/06/26 01:36:54;;;;;;;12.70;11.40;;;;;;;22.33;53.25;100552.47;682427;29;1279;-75
2022/06/26 01:37:15;;;;;;;12.80;11.57;;;;;;;22.34;53.25;100556.84;679784;29;1759;-75
2022/06/26 01:37:36;;;;;;;13.10;11.73;;;;;;;22.30;53.56;100547.19;684625;28;1175;-75
2022/06/26 01:38:12;;;;;;;13.20;11.80;;;;;;;22.40;53.27;100563.81;684838;28;1787;-75
2022/06/26 01:38:33;;;;;;;12.93;11.63;;;;;;;22.33;53.59;100549.81;682465;29;1100;-75
2022/06/26 01:38:54;;;;;;;13.20;11.90;;;;;;;22.36;53.51;100560.34;683089;28;1370;-75
2022/06/26 01:39:20;;;;;;;13.70;12.30;;;;;;;22.35;53.27;100550.63;682337;28;1213;-76
2022/06/26 01:39:40;;;;;;;13.82;12.23;;;;;;;22.37;53.23;100558.56;679304;29;1799;-76
2022/06/26 01:40:01;;;;;;;13.15;11.80;;;;;;;22.45;53.39;100575.22;677043;29;1010;-75
2022/06/26 01:40:22;;;;;;;13.32;11.63;;;;;;;22.39;53.51;100560.28;678275;29;1059;-76
2022/06/26 01:40:44;;;;;;;13.33;11.93;;;;;;;22.38;53.45;100555.00;679877;29;1137;-75
2022/06/26 01:41:07;;;;;;;14.90;12.67;;;;;;;22.43;53.65;100566.38;682463;29;962;-75
2022/06/26 01:41:28;;;;;;;14.40;12.90;;;;;;;22.40;53.58;100555.81;687523;28;1239;-75
2022/06/26 01:41:49;;;;;;;14.20;12.70;;;;;;;22.37;53.65;100554.13;685161;28;1412;-76
2022/06/26 01:42:10;;;;;;;13.90;12.52;;;;;;;22.39;53.46;100552.31;682722;28;1311;-75
2022/06/26 01:42:31;;;;;;;14.20;12.80;;;;;;;22.39;53.75;100554.97;680798;29;1167;-75
2022/06/26 01:42:52;;;;;;;14.13;12.63;;;;;;;22.43;53.73;100559.28;679727;29;1401;-75
2022/06/26 01:43:17;;;;;;;15.13;13.60;;;;;;;22.43;53.71;100561.94;677739;29;1515;-75
2022/06/26 01:43:51;;;;;;;15.90;13.50;;;;;;;22.39;53.79;100552.31;682206;29;1477;-75
2022/06/26 01:44:12;;;;;;;15.60;13.45;;;;;;;22.45;53.68;100562.78;679217;29;1504;-75
2022/06/26 01:44:32;;;;;;;16.13;13.83;;;;;;;22.42;53.64;100557.53;682354;29;1274;-75
2022/06/26 01:44:53;;;;;;;18.48;14.35;;;;;;;22.38;53.74;100547.88;679828;29;1145;-76
2022/06/26 01:45:16;;;;;;;16.85;13.95;;;;;;;22.38;53.86;100541.72;680780;29;1391;-75
2022/06/26 01:45:45;;;;;;;16.05;14.00;;;;;;;22.35;53.83;100541.75;685167;28;1149;-75